sensor_id;sensor_type;location;lat;lon;timestamp;temperature;humidity
52203;DHT22;38173;52.850;6.970;2022-08-03T00:00:47;18.00;99.90
52203;DHT22;38173;52.850;6.970;2022-08-03T00:03:13;18.00;99.90
52203;DHT22;38173;52.850;6.970;2022-08-03T00:05:38;18.00;99.90
52203;DHT22;38173;52.850;6.970;2022-08-03T00:08:04;18.00;99.90
52203;DHT22;38173;52.850;6.970;2022-08-03T00:10:30;17.90;99.90
52203;DHT22;38173;52.850;6.970;2022-08-03T00:12:57;17.90;99.90
52203;DHT22;38173;52.850;6.970;2022-08-03T00:15:23;17.90;99.90
52203;DHT22;38173;52.850;6.970;2022-08-03T00:17:48;17.90;99.90
52203;DHT22;38173;52.850;6.970;2022-08-03T00:20:14;17.80;99.90
52203;DHT22;38173;52.850;6.970;2022-08-03T00:22:40;17.80;99.90
52203;DHT22;38173;52.850;6.970;2022-08-03T00:25:06;17.80;99.90
52203;DHT22;38173;52.850;6.970;2022-08-03T00:27:32;17.80;99.90
52203;DHT22;38173;52.850;6.970;2022-08-03T00:29:58;17.80;99.90
52203;DHT22;38173;52.850;6.970;2022-08-03T00:32:23;17.80;99.90
52203;DHT22;38173;52.850;6.970;2022-08-03T00:34:49;17.70;99.90
52203;DHT22;38173;52.850;6.970;2022-08-03T00:37:15;17.70;99.90
52203;DHT22;38173;52.850;6.970;2022-08-03T00:39:41;17.70;99.90
52203;DHT22;38173;52.850;6.970;2022-08-03T00:42:08;17.70;99.90
52203;DHT22;38173;52.850;6.970;2022-08-03T00:44:42;17.70;99.90
52203;DHT22;38173;52.850;6.970;2022-08-03T00:47:10;17.60;99.90
52203;DHT22;38173;52.850;6.970;2022-08-03T00:49:37;17.60;99.90
52203;DHT22;38173;52.850;6.970;2022-08-03T00:52:03;17.60;99.90
52203;DHT22;38173;52.850;6.970;2022-08-03T00:54:30;17.60;99.90
52203;DHT22;38173;52.850;6.970;2022-08-03T00:56:56;17.60;99.90
52203;DHT22;38173;52.850;6.970;2022-08-03T00:59:22;17.60;99.90
52203;DHT22;38173;52.850;6.970;2022-08-03T01:01:48;17.50;99.90
52203;DHT22;38173;52.850;6.970;2022-08-03T01:04:13;17.60;99.90
52203;DHT22;38173;52.850;6.970;2022-08-03T01:09:18;17.50;99.90
52203;DHT22;38173;52.850;6.970;2022-08-03T01:11:53;17.60;99.90
52203;DHT22;38173;52.850;6.970;2022-08-03T01:14:34;17.50;99.90
52203;DHT22;38173;52.850;6.970;2022-08-03T01:20:07;17.50;99.90
52203;DHT22;38173;52.850;6.970;2022-08-03T01:25:39;17.40;99.90
52203;DHT22;38173;52.850;6.970;2022-08-03T01:31:04;17.40;99.90
52203;DHT22;38173;52.850;6.970;2022-08-03T01:33:43;17.30;99.90
52203;DHT22;38173;52.850;6.970;2022-08-03T01:36:18;17.30;99.90
52203;DHT22;38173;52.850;6.970;2022-08-03T01:38:49;17.30;99.90
52203;DHT22;38173;52.850;6.970;2022-08-03T01:41:20;17.30;99.90
52203;DHT22;38173;52.850;6.970;2022-08-03T01:43:48;17.30;99.90
52203;DHT22;38173;52.850;6.970;2022-08-03T01:46:16;17.30;99.90
52203;DHT22;38173;52.850;6.970;2022-08-03T01:48:46;17.20;99.90
52203;DHT22;38173;52.850;6.970;2022-08-03T01:51:12;17.20;99.90
52203;DHT22;38173;52.850;6.970;2022-08-03T01:53:40;17.20;99.90
52203;DHT22;38173;52.850;6.970;2022-08-03T01:56:09;17.20;99.90
52203;DHT22;38173;52.850;6.970;2022-08-03T01:58:36;17.10;99.90
52203;DHT22;38173;52.850;6.970;2022-08-03T02:01:04;17.10;99.90
52203;DHT22;38173;52.850;6.970;2022-08-03T02:03:33;17.10;99.90
52203;DHT22;38173;52.850;6.970;2022-08-03T02:06:01;17.00;99.90
52203;DHT22;38173;52.850;6.970;2022-08-03T02:08:28;17.00;99.90
52203;DHT22;38173;52.850;6.970;2022-08-03T02:10:56;17.00;99.90
52203;DHT22;38173;52.850;6.970;2022-08-03T02:13:23;17.00;99.90
52203;DHT22;38173;52.850;6.970;2022-08-03T02:15:51;16.90;99.90
52203;DHT22;38173;52.850;6.970;2022-08-03T02:18:19;16.90;99.90
52203;DHT22;38173;52.850;6.970;2022-08-03T02:20:46;16.90;99.90
52203;DHT22;38173;52.850;6.970;2022-08-03T02:23:14;16.80;99.90
52203;DHT22;38173;52.850;6.970;2022-08-03T02:25:44;16.80;99.90
52203;DHT22;38173;52.850;6.970;2022-08-03T02:28:17;16.80;99.90
52203;DHT22;38173;52.850;6.970;2022-08-03T02:30:46;16.80;99.90
52203;DHT22;38173;52.850;6.970;2022-08-03T02:33:18;16.70;99.90
52203;DHT22;38173;52.850;6.970;2022-08-03T02:35:44;16.70;99.90
52203;DHT22;38173;52.850;6.970;2022-08-03T02:38:14;16.70;99.90
52203;DHT22;38173;52.850;6.970;2022-08-03T02:40:43;16.60;99.90
52203;DHT22;38173;52.850;6.970;2022-08-03T02:43:11;16.60;99.90
52203;DHT22;38173;52.850;6.970;2022-08-03T02:45:43;16.60;99.90
52203;DHT22;38173;52.850;6.970;2022-08-03T02:48:10;16.60;99.90
52203;DHT22;38173;52.850;6.970;2022-08-03T02:50:37;16.50;99.90
52203;DHT22;38173;52.850;6.970;2022-08-03T02:53:04;16.50;99.90
52203;DHT22;38173;52.850;6.970;2022-08-03T02:55:33;16.50;99.90
52203;DHT22;38173;52.850;6.970;2022-08-03T02:58:01;16.50;99.90
52203;DHT22;38173;52.850;6.970;2022-08-03T03:00:28;16.50;99.90
52203;DHT22;38173;52.850;6.970;2022-08-03T03:02:57;16.50;99.90
52203;DHT22;38173;52.850;6.970;2022-08-03T03:05:24;16.40;99.90
52203;DHT22;38173;52.850;6.970;2022-08-03T03:07:50;16.40;99.90
52203;DHT22;38173;52.850;6.970;2022-08-03T03:10:16;16.40;99.90
52203;DHT22;38173;52.850;6.970;2022-08-03T03:12:42;16.30;99.90
52203;DHT22;38173;52.850;6.970;2022-08-03T03:15:09;16.30;99.90
52203;DHT22;38173;52.850;6.970;2022-08-03T03:17:36;16.30;99.90
52203;DHT22;38173;52.850;6.970;2022-08-03T03:20:04;16.30;99.90
52203;DHT22;38173;52.850;6.970;2022-08-03T03:22:32;16.30;99.90
52203;DHT22;38173;52.850;6.970;2022-08-03T03:24:58;16.20;99.90
52203;DHT22;38173;52.850;6.970;2022-08-03T03:27:25;16.20;99.90
52203;DHT22;38173;52.850;6.970;2022-08-03T03:29:51;16.20;99.90
52203;DHT22;38173;52.850;6.970;2022-08-03T03:32:17;16.20;99.90
52203;DHT22;38173;52.850;6.970;2022-08-03T03:34:43;16.20;99.90
52203;DHT22;38173;52.850;6.970;2022-08-03T03:37:09;16.20;99.90
52203;DHT22;38173;52.850;6.970;2022-08-03T03:39:35;16.20;99.90
52203;DHT22;38173;52.850;6.970;2022-08-03T03:42:01;16.20;99.90
52203;DHT22;38173;52.850;6.970;2022-08-03T03:44:30;16.20;99.90
52203;DHT22;38173;52.850;6.970;2022-08-03T03:46:59;16.20;99.90
52203;DHT22;38173;52.850;6.970;2022-08-03T03:49:25;16.20;99.90
52203;DHT22;38173;52.850;6.970;2022-08-03T03:51:52;16.10;99.90
52203;DHT22;38173;52.850;6.970;2022-08-03T03:54:19;16.10;99.90
52203;DHT22;38173;52.850;6.970;2022-08-03T03:56:45;16.10;99.90
52203;DHT22;38173;52.850;6.970;2022-08-03T03:59:11;16.20;99.90
52203;DHT22;38173;52.850;6.970;2022-08-03T04:01:38;16.20;99.90
52203;DHT22;38173;52.850;6.970;2022-08-03T04:04:04;16.20;99.90
52203;DHT22;38173;52.850;6.970;2022-08-03T04:06:48;16.20;99.90
52203;DHT22;38173;52.850;6.970;2022-08-03T04:09:35;16.20;99.90
52203;DHT22;38173;52.850;6.970;2022-08-03T04:12:22;16.20;99.90
52203;DHT22;38173;52.850;6.970;2022-08-03T04:14:50;16.10;99.90
52203;DHT22;38173;52.850;6.970;2022-08-03T04:17:17;16.10;99.90
52203;DHT22;38173;52.850;6.970;2022-08-03T04:19:47;16.10;99.90
52203;DHT22;38173;52.850;6.970;2022-08-03T04:22:18;16.10;99.90
52203;DHT22;38173;52.850;6.970;2022-08-03T04:25:02;16.10;99.90
52203;DHT22;38173;52.850;6.970;2022-08-03T04:27:38;16.10;99.90
52203;DHT22;38173;52.850;6.970;2022-08-03T04:30:06;16.10;99.90
52203;DHT22;38173;52.850;6.970;2022-08-03T04:32:34;16.20;99.90
52203;DHT22;38173;52.850;6.970;2022-08-03T04:35:02;16.20;99.90
52203;DHT22;38173;52.850;6.970;2022-08-03T04:37:47;16.20;99.90
52203;DHT22;38173;52.850;6.970;2022-08-03T04:40:24;16.30;99.90
52203;DHT22;38173;52.850;6.970;2022-08-03T04:42:54;16.30;99.90
52203;DHT22;38173;52.850;6.970;2022-08-03T04:45:21;16.40;99.90
52203;DHT22;38173;52.850;6.970;2022-08-03T04:47:48;16.40;99.90
52203;DHT22;38173;52.850;6.970;2022-08-03T04:50:14;16.50;99.90
52203;DHT22;38173;52.850;6.970;2022-08-03T04:52:40;16.50;99.90
52203;DHT22;38173;52.850;6.970;2022-08-03T04:55:06;16.50;99.90
52203;DHT22;38173;52.850;6.970;2022-08-03T04:57:32;16.60;99.90
52203;DHT22;38173;52.850;6.970;2022-08-03T04:59:58;16.60;99.90
52203;DHT22;38173;52.850;6.970;2022-08-03T05:02:24;16.60;99.90
52203;DHT22;38173;52.850;6.970;2022-08-03T05:04:49;16.70;99.90
52203;DHT22;38173;52.850;6.970;2022-08-03T05:07:16;16.70;99.90
52203;DHT22;38173;52.850;6.970;2022-08-03T05:09:42;16.70;99.90
52203;DHT22;38173;52.850;6.970;2022-08-03T05:12:08;16.80;99.90
52203;DHT22;38173;52.850;6.970;2022-08-03T05:14:35;16.80;99.90
52203;DHT22;38173;52.850;6.970;2022-08-03T05:17:07;16.90;99.90
52203;DHT22;38173;52.850;6.970;2022-08-03T05:19:33;16.90;99.90
52203;DHT22;38173;52.850;6.970;2022-08-03T05:21:59;17.00;99.90
52203;DHT22;38173;52.850;6.970;2022-08-03T05:24:25;17.00;99.90
52203;DHT22;38173;52.850;6.970;2022-08-03T05:26:51;17.10;99.90
52203;DHT22;38173;52.850;6.970;2022-08-03T05:29:17;17.20;99.90
52203;DHT22;38173;52.850;6.970;2022-08-03T05:31:43;17.30;99.90
52203;DHT22;38173;52.850;6.970;2022-08-03T05:34:09;17.40;99.90
52203;DHT22;38173;52.850;6.970;2022-08-03T05:36:34;17.50;99.90
52203;DHT22;38173;52.850;6.970;2022-08-03T05:39:00;17.70;99.90
52203;DHT22;38173;52.850;6.970;2022-08-03T05:41:26;17.90;99.90
52203;DHT22;38173;52.850;6.970;2022-08-03T05:43:53;18.00;99.90
52203;DHT22;38173;52.850;6.970;2022-08-03T05:46:20;18.20;99.90
52203;DHT22;38173;52.850;6.970;2022-08-03T05:48:46;18.40;99.90
52203;DHT22;38173;52.850;6.970;2022-08-03T05:51:11;18.60;99.90
52203;DHT22;38173;52.850;6.970;2022-08-03T05:53:39;18.80;99.90
52203;DHT22;38173;52.850;6.970;2022-08-03T05:56:05;19.00;99.90
52203;DHT22;38173;52.850;6.970;2022-08-03T05:58:31;19.10;99.90
52203;DHT22;38173;52.850;6.970;2022-08-03T06:00:56;19.30;99.90
52203;DHT22;38173;52.850;6.970;2022-08-03T06:03:22;19.40;99.90
52203;DHT22;38173;52.850;6.970;2022-08-03T06:05:48;19.60;99.90
52203;DHT22;38173;52.850;6.970;2022-08-03T06:08:14;19.70;99.90
52203;DHT22;38173;52.850;6.970;2022-08-03T06:10:39;19.80;99.90
52203;DHT22;38173;52.850;6.970;2022-08-03T06:13:05;19.90;99.90
52203;DHT22;38173;52.850;6.970;2022-08-03T06:15:31;19.90;99.90
52203;DHT22;38173;52.850;6.970;2022-08-03T06:17:58;20.00;99.90
52203;DHT22;38173;52.850;6.970;2022-08-03T06:20:24;20.20;99.90
52203;DHT22;38173;52.850;6.970;2022-08-03T06:22:50;20.20;99.90
52203;DHT22;38173;52.850;6.970;2022-08-03T06:25:16;20.40;99.90
52203;DHT22;38173;52.850;6.970;2022-08-03T06:27:42;20.50;99.90
52203;DHT22;38173;52.850;6.970;2022-08-03T06:30:09;20.60;99.90
52203;DHT22;38173;52.850;6.970;2022-08-03T06:32:36;20.60;99.90
52203;DHT22;38173;52.850;6.970;2022-08-03T06:35:04;20.80;99.90
52203;DHT22;38173;52.850;6.970;2022-08-03T06:37:29;20.90;99.90
52203;DHT22;38173;52.850;6.970;2022-08-03T06:39:55;21.00;99.90
52203;DHT22;38173;52.850;6.970;2022-08-03T06:42:21;21.10;99.90
52203;DHT22;38173;52.850;6.970;2022-08-03T06:44:46;21.20;99.90
52203;DHT22;38173;52.850;6.970;2022-08-03T06:47:12;21.30;99.90
52203;DHT22;38173;52.850;6.970;2022-08-03T06:49:38;21.40;99.90
52203;DHT22;38173;52.850;6.970;2022-08-03T06:52:05;21.50;99.90
52203;DHT22;38173;52.850;6.970;2022-08-03T06:54:31;21.50;99.90
52203;DHT22;38173;52.850;6.970;2022-08-03T06:56:56;21.60;99.90
52203;DHT22;38173;52.850;6.970;2022-08-03T06:59:22;21.70;99.90
52203;DHT22;38173;52.850;6.970;2022-08-03T07:01:48;21.70;99.90
52203;DHT22;38173;52.850;6.970;2022-08-03T07:04:13;21.70;99.90
52203;DHT22;38173;52.850;6.970;2022-08-03T07:06:39;21.80;99.90
52203;DHT22;38173;52.850;6.970;2022-08-03T07:09:05;21.80;99.90
52203;DHT22;38173;52.850;6.970;2022-08-03T07:11:31;21.70;99.90
52203;DHT22;38173;52.850;6.970;2022-08-03T07:13:57;21.80;99.90
52203;DHT22;38173;52.850;6.970;2022-08-03T07:16:22;21.80;99.90
52203;DHT22;38173;52.850;6.970;2022-08-03T07:18:48;21.90;99.90
52203;DHT22;38173;52.850;6.970;2022-08-03T07:21:14;21.90;99.90
52203;DHT22;38173;52.850;6.970;2022-08-03T07:23:41;21.90;99.90
52203;DHT22;38173;52.850;6.970;2022-08-03T07:26:07;21.90;99.90
52203;DHT22;38173;52.850;6.970;2022-08-03T07:28:33;21.90;99.90
52203;DHT22;38173;52.850;6.970;2022-08-03T07:30:58;22.00;99.90
52203;DHT22;38173;52.850;6.970;2022-08-03T07:33:24;22.00;99.90
52203;DHT22;38173;52.850;6.970;2022-08-03T07:35:50;22.10;99.90
52203;DHT22;38173;52.850;6.970;2022-08-03T07:38:16;22.10;99.90
52203;DHT22;38173;52.850;6.970;2022-08-03T07:40:42;22.10;99.90
52203;DHT22;38173;52.850;6.970;2022-08-03T07:43:07;22.10;99.90
52203;DHT22;38173;52.850;6.970;2022-08-03T07:45:33;22.10;99.90
52203;DHT22;38173;52.850;6.970;2022-08-03T07:47:59;22.20;99.90
52203;DHT22;38173;52.850;6.970;2022-08-03T07:50:25;22.30;99.90
52203;DHT22;38173;52.850;6.970;2022-08-03T07:52:51;22.30;99.90
52203;DHT22;38173;52.850;6.970;2022-08-03T07:55:20;22.40;99.90
52203;DHT22;38173;52.850;6.970;2022-08-03T07:57:57;22.40;99.90
52203;DHT22;38173;52.850;6.970;2022-08-03T08:00:23;22.40;99.90
52203;DHT22;38173;52.850;6.970;2022-08-03T08:02:49;22.40;99.90
52203;DHT22;38173;52.850;6.970;2022-08-03T08:05:14;22.40;99.90
52203;DHT22;38173;52.850;6.970;2022-08-03T08:07:40;22.50;99.90
52203;DHT22;38173;52.850;6.970;2022-08-03T08:10:07;22.50;99.90
52203;DHT22;38173;52.850;6.970;2022-08-03T08:12:34;22.50;99.90
52203;DHT22;38173;52.850;6.970;2022-08-03T08:15:01;22.60;99.90
52203;DHT22;38173;52.850;6.970;2022-08-03T08:17:27;22.60;99.90
52203;DHT22;38173;52.850;6.970;2022-08-03T08:19:53;22.70;99.90
52203;DHT22;38173;52.850;6.970;2022-08-03T08:22:18;22.70;99.90
52203;DHT22;38173;52.850;6.970;2022-08-03T08:24:44;22.80;99.90
52203;DHT22;38173;52.850;6.970;2022-08-03T08:27:12;23.00;99.90
52203;DHT22;38173;52.850;6.970;2022-08-03T08:29:38;23.10;99.90
52203;DHT22;38173;52.850;6.970;2022-08-03T08:32:04;23.20;99.90
52203;DHT22;38173;52.850;6.970;2022-08-03T08:34:30;23.20;99.90
52203;DHT22;38173;52.850;6.970;2022-08-03T08:36:56;23.40;99.90
52203;DHT22;38173;52.850;6.970;2022-08-03T08:39:21;23.40;99.90
52203;DHT22;38173;52.850;6.970;2022-08-03T08:41:50;23.50;99.90
52203;DHT22;38173;52.850;6.970;2022-08-03T08:44:17;23.60;99.90
52203;DHT22;38173;52.850;6.970;2022-08-03T08:46:43;23.60;99.90
52203;DHT22;38173;52.850;6.970;2022-08-03T08:49:09;23.70;99.90
52203;DHT22;38173;52.850;6.970;2022-08-03T08:51:38;23.80;99.90
52203;DHT22;38173;52.850;6.970;2022-08-03T08:54:06;23.90;99.90
52203;DHT22;38173;52.850;6.970;2022-08-03T08:56:32;23.90;99.90
52203;DHT22;38173;52.850;6.970;2022-08-03T08:59:00;23.90;99.90
52203;DHT22;38173;52.850;6.970;2022-08-03T09:01:27;24.00;99.90
52203;DHT22;38173;52.850;6.970;2022-08-03T09:03:54;24.00;99.90
52203;DHT22;38173;52.850;6.970;2022-08-03T09:06:20;24.10;99.90
52203;DHT22;38173;52.850;6.970;2022-08-03T09:08:46;24.10;99.90
52203;DHT22;38173;52.850;6.970;2022-08-03T09:11:12;24.20;99.90
52203;DHT22;38173;52.850;6.970;2022-08-03T09:13:38;24.30;99.90
52203;DHT22;38173;52.850;6.970;2022-08-03T09:16:17;24.30;99.90
52203;DHT22;38173;52.850;6.970;2022-08-03T09:18:53;24.40;99.90
52203;DHT22;38173;52.850;6.970;2022-08-03T09:21:25;24.50;99.90
52203;DHT22;38173;52.850;6.970;2022-08-03T09:23:53;24.50;99.90
52203;DHT22;38173;52.850;6.970;2022-08-03T09:26:23;24.50;99.90
52203;DHT22;38173;52.850;6.970;2022-08-03T09:29:03;24.60;99.90
52203;DHT22;38173;52.850;6.970;2022-08-03T09:31:37;24.60;99.90
52203;DHT22;38173;52.850;6.970;2022-08-03T09:34:07;24.70;99.90
52203;DHT22;38173;52.850;6.970;2022-08-03T09:36:37;24.70;99.90
52203;DHT22;38173;52.850;6.970;2022-08-03T09:39:05;24.70;99.90
52203;DHT22;38173;52.850;6.970;2022-08-03T09:41:32;24.70;99.90
52203;DHT22;38173;52.850;6.970;2022-08-03T09:43:58;24.80;99.90
52203;DHT22;38173;52.850;6.970;2022-08-03T09:46:24;24.90;99.90
52203;DHT22;38173;52.850;6.970;2022-08-03T09:48:50;25.00;99.90
52203;DHT22;38173;52.850;6.970;2022-08-03T09:51:15;25.00;99.90
52203;DHT22;38173;52.850;6.970;2022-08-03T09:53:44;25.10;99.90
52203;DHT22;38173;52.850;6.970;2022-08-03T09:56:10;25.10;99.90
52203;DHT22;38173;52.850;6.970;2022-08-03T09:58:45;25.10;99.90
52203;DHT22;38173;52.850;6.970;2022-08-03T10:01:15;25.10;99.90
52203;DHT22;38173;52.850;6.970;2022-08-03T10:03:40;25.10;99.90
52203;DHT22;38173;52.850;6.970;2022-08-03T10:06:16;25.20;99.90
52203;DHT22;38173;52.850;6.970;2022-08-03T10:08:44;25.30;99.90
52203;DHT22;38173;52.850;6.970;2022-08-03T10:11:10;25.30;99.90
52203;DHT22;38173;52.850;6.970;2022-08-03T10:13:37;25.40;99.90
52203;DHT22;38173;52.850;6.970;2022-08-03T10:16:03;25.50;99.90
52203;DHT22;38173;52.850;6.970;2022-08-03T10:18:30;25.60;99.90
52203;DHT22;38173;52.850;6.970;2022-08-03T10:21:09;25.70;99.90
52203;DHT22;38173;52.850;6.970;2022-08-03T10:23:40;25.60;99.90
52203;DHT22;38173;52.850;6.970;2022-08-03T10:26:07;25.70;99.90
52203;DHT22;38173;52.850;6.970;2022-08-03T10:28:40;25.80;99.90
52203;DHT22;38173;52.850;6.970;2022-08-03T10:31:07;25.90;99.90
52203;DHT22;38173;52.850;6.970;2022-08-03T10:33:37;25.90;99.90
52203;DHT22;38173;52.850;6.970;2022-08-03T10:36:06;26.00;99.90
52203;DHT22;38173;52.850;6.970;2022-08-03T10:38:38;26.00;99.90
52203;DHT22;38173;52.850;6.970;2022-08-03T10:41:05;26.00;99.90
52203;DHT22;38173;52.850;6.970;2022-08-03T10:43:39;26.10;99.90
52203;DHT22;38173;52.850;6.970;2022-08-03T10:46:07;26.20;99.90
52203;DHT22;38173;52.850;6.970;2022-08-03T10:48:34;26.30;99.90
52203;DHT22;38173;52.850;6.970;2022-08-03T10:51:02;26.50;99.90
52203;DHT22;38173;52.850;6.970;2022-08-03T10:53:37;26.50;99.90
52203;DHT22;38173;52.850;6.970;2022-08-03T10:56:04;26.70;99.90
52203;DHT22;38173;52.850;6.970;2022-08-03T10:58:51;26.70;99.90
52203;DHT22;38173;52.850;6.970;2022-08-03T11:01:18;26.80;99.90
52203;DHT22;38173;52.850;6.970;2022-08-03T11:06:29;26.90;99.90
52203;DHT22;38173;52.850;6.970;2022-08-03T11:11:36;27.00;99.90
52203;DHT22;38173;52.850;6.970;2022-08-03T11:14:12;27.10;99.90
52203;DHT22;38173;52.850;6.970;2022-08-03T11:16:46;27.20;99.90
52203;DHT22;38173;52.850;6.970;2022-08-03T11:19:18;27.40;99.90
52203;DHT22;38173;52.850;6.970;2022-08-03T11:21:54;27.50;99.90
52203;DHT22;38173;52.850;6.970;2022-08-03T11:27:23;27.70;99.90
52203;DHT22;38173;52.850;6.970;2022-08-03T11:35:10;28.00;99.90
52203;DHT22;38173;52.850;6.970;2022-08-03T11:48:37;28.60;99.90
52203;DHT22;38173;52.850;6.970;2022-08-03T11:51:06;28.70;99.90
52203;DHT22;38173;52.850;6.970;2022-08-03T11:53:33;28.80;99.90
52203;DHT22;38173;52.850;6.970;2022-08-03T11:56:00;28.80;97.50
52203;DHT22;38173;52.850;6.970;2022-08-03T11:58:27;28.70;95.80
52203;DHT22;38173;52.850;6.970;2022-08-03T12:01:02;28.70;97.50
52203;DHT22;38173;52.850;6.970;2022-08-03T12:03:31;28.80;97.90
52203;DHT22;38173;52.850;6.970;2022-08-03T12:05:57;28.80;98.30
52203;DHT22;38173;52.850;6.970;2022-08-03T12:10:52;28.70;98.70
52203;DHT22;38173;52.850;6.970;2022-08-03T12:13:19;28.80;98.20
52203;DHT22;38173;52.850;6.970;2022-08-03T12:15:53;28.80;97.00
52203;DHT22;38173;52.850;6.970;2022-08-03T12:18:20;28.90;95.20
52203;DHT22;38173;52.850;6.970;2022-08-03T12:20:48;28.90;93.10
52203;DHT22;38173;52.850;6.970;2022-08-03T12:23:14;28.90;94.20
52203;DHT22;38173;52.850;6.970;2022-08-03T12:25:42;29.00;96.90
52203;DHT22;38173;52.850;6.970;2022-08-03T12:28:18;29.20;97.40
52203;DHT22;38173;52.850;6.970;2022-08-03T12:30:49;29.20;94.30
52203;DHT22;38173;52.850;6.970;2022-08-03T12:33:22;29.20;95.50
52203;DHT22;38173;52.850;6.970;2022-08-03T12:36:03;29.30;95.00
52203;DHT22;38173;52.850;6.970;2022-08-03T12:38:30;29.30;92.00
52203;DHT22;38173;52.850;6.970;2022-08-03T12:40:58;29.30;91.30
52203;DHT22;38173;52.850;6.970;2022-08-03T12:43:24;29.40;93.40
52203;DHT22;38173;52.850;6.970;2022-08-03T12:45:50;29.50;91.40
52203;DHT22;38173;52.850;6.970;2022-08-03T12:48:15;29.70;91.90
52203;DHT22;38173;52.850;6.970;2022-08-03T12:50:43;29.90;92.10
52203;DHT22;38173;52.850;6.970;2022-08-03T12:53:09;30.10;90.30
52203;DHT22;38173;52.850;6.970;2022-08-03T12:55:37;30.50;90.20
52203;DHT22;38173;52.850;6.970;2022-08-03T12:58:06;30.80;89.80
52203;DHT22;38173;52.850;6.970;2022-08-03T13:00:32;31.20;90.50
52203;DHT22;38173;52.850;6.970;2022-08-03T13:03:07;31.60;84.50
52203;DHT22;38173;52.850;6.970;2022-08-03T13:05:43;32.00;85.90
52203;DHT22;38173;52.850;6.970;2022-08-03T13:08:20;32.30;86.10
52203;DHT22;38173;52.850;6.970;2022-08-03T13:10:46;32.60;77.10
52203;DHT22;38173;52.850;6.970;2022-08-03T13:13:12;32.90;81.20
52203;DHT22;38173;52.850;6.970;2022-08-03T13:15:38;33.30;76.90
52203;DHT22;38173;52.850;6.970;2022-08-03T13:18:04;33.60;75.80
52203;DHT22;38173;52.850;6.970;2022-08-03T13:20:30;33.90;74.00
52203;DHT22;38173;52.850;6.970;2022-08-03T13:22:55;34.10;73.80
52203;DHT22;38173;52.850;6.970;2022-08-03T13:25:21;34.60;75.10
52203;DHT22;38173;52.850;6.970;2022-08-03T13:27:47;34.90;70.90
52203;DHT22;38173;52.850;6.970;2022-08-03T13:30:15;34.90;67.80
52203;DHT22;38173;52.850;6.970;2022-08-03T13:32:41;35.00;66.80
52203;DHT22;38173;52.850;6.970;2022-08-03T13:35:07;34.90;61.70
52203;DHT22;38173;52.850;6.970;2022-08-03T13:37:34;34.80;65.10
52203;DHT22;38173;52.850;6.970;2022-08-03T13:40:04;34.50;62.30
52203;DHT22;38173;52.850;6.970;2022-08-03T13:42:31;34.40;64.90
52203;DHT22;38173;52.850;6.970;2022-08-03T13:44:59;34.40;61.80
52203;DHT22;38173;52.850;6.970;2022-08-03T13:47:25;34.70;66.60
52203;DHT22;38173;52.850;6.970;2022-08-03T13:49:51;35.20;70.10
52203;DHT22;38173;52.850;6.970;2022-08-03T13:52:18;35.80;63.80
52203;DHT22;38173;52.850;6.970;2022-08-03T13:54:44;35.90;63.20
52203;DHT22;38173;52.850;6.970;2022-08-03T13:57:10;36.00;66.10
52203;DHT22;38173;52.850;6.970;2022-08-03T13:59:36;36.10;62.40
52203;DHT22;38173;52.850;6.970;2022-08-03T14:02:03;36.00;64.90
52203;DHT22;38173;52.850;6.970;2022-08-03T14:04:29;36.00;63.40
52203;DHT22;38173;52.850;6.970;2022-08-03T14:06:55;35.90;56.50
52203;DHT22;38173;52.850;6.970;2022-08-03T14:09:21;35.70;62.90
52203;DHT22;38173;52.850;6.970;2022-08-03T14:11:46;35.60;63.30
52203;DHT22;38173;52.850;6.970;2022-08-03T14:14:12;35.40;62.90
52203;DHT22;38173;52.850;6.970;2022-08-03T14:16:38;35.20;64.90
52203;DHT22;38173;52.850;6.970;2022-08-03T14:19:04;35.10;64.80
52203;DHT22;38173;52.850;6.970;2022-08-03T14:21:31;34.90;64.70
52203;DHT22;38173;52.850;6.970;2022-08-03T14:23:57;34.90;65.20
52203;DHT22;38173;52.850;6.970;2022-08-03T14:26:22;34.70;62.90
52203;DHT22;38173;52.850;6.970;2022-08-03T14:28:48;34.70;64.20
52203;DHT22;38173;52.850;6.970;2022-08-03T14:31:14;34.70;65.80
52203;DHT22;38173;52.850;6.970;2022-08-03T14:33:40;34.70;63.70
52203;DHT22;38173;52.850;6.970;2022-08-03T14:36:05;34.70;64.00
52203;DHT22;38173;52.850;6.970;2022-08-03T14:38:31;34.80;65.40
52203;DHT22;38173;52.850;6.970;2022-08-03T14:40:57;34.90;63.50
52203;DHT22;38173;52.850;6.970;2022-08-03T14:43:23;35.00;64.60
52203;DHT22;38173;52.850;6.970;2022-08-03T14:45:50;35.10;62.30
52203;DHT22;38173;52.850;6.970;2022-08-03T14:48:22;35.30;64.40
52203;DHT22;38173;52.850;6.970;2022-08-03T14:50:48;35.70;61.90
52203;DHT22;38173;52.850;6.970;2022-08-03T14:53:14;36.10;61.70
52203;DHT22;38173;52.850;6.970;2022-08-03T14:55:44;36.30;61.20
52203;DHT22;38173;52.850;6.970;2022-08-03T14:58:12;36.00;62.30
52203;DHT22;38173;52.850;6.970;2022-08-03T15:00:38;35.90;64.00
52203;DHT22;38173;52.850;6.970;2022-08-03T15:03:04;35.60;62.40
52203;DHT22;38173;52.850;6.970;2022-08-03T15:05:31;35.50;64.50
52203;DHT22;38173;52.850;6.970;2022-08-03T15:07:58;35.60;63.30
52203;DHT22;38173;52.850;6.970;2022-08-03T15:10:26;35.80;63.00
52203;DHT22;38173;52.850;6.970;2022-08-03T15:12:52;35.70;62.60
52203;DHT22;38173;52.850;6.970;2022-08-03T15:15:19;35.70;62.30
52203;DHT22;38173;52.850;6.970;2022-08-03T15:17:45;35.80;60.20
52203;DHT22;38173;52.850;6.970;2022-08-03T15:20:11;36.20;60.10
52203;DHT22;38173;52.850;6.970;2022-08-03T15:22:40;36.20;60.50
52203;DHT22;38173;52.850;6.970;2022-08-03T15:25:06;36.40;61.20
52203;DHT22;38173;52.850;6.970;2022-08-03T15:27:32;36.70;57.70
52203;DHT22;38173;52.850;6.970;2022-08-03T15:30:04;36.90;58.90
52203;DHT22;38173;52.850;6.970;2022-08-03T15:32:32;37.10;60.40
52203;DHT22;38173;52.850;6.970;2022-08-03T15:34:58;37.40;59.10
52203;DHT22;38173;52.850;6.970;2022-08-03T15:37:25;37.00;59.30
52203;DHT22;38173;52.850;6.970;2022-08-03T15:39:51;36.30;58.90
52203;DHT22;38173;52.850;6.970;2022-08-03T15:42:17;35.70;60.70
52203;DHT22;38173;52.850;6.970;2022-08-03T15:44:43;35.60;60.80
52203;DHT22;38173;52.850;6.970;2022-08-03T15:47:08;35.60;59.20
52203;DHT22;38173;52.850;6.970;2022-08-03T15:49:35;35.50;60.30
52203;DHT22;38173;52.850;6.970;2022-08-03T15:52:01;35.70;61.10
52203;DHT22;38173;52.850;6.970;2022-08-03T15:54:27;36.00;60.80
52203;DHT22;38173;52.850;6.970;2022-08-03T15:56:54;36.00;59.30
52203;DHT22;38173;52.850;6.970;2022-08-03T15:59:20;36.00;60.00
52203;DHT22;38173;52.850;6.970;2022-08-03T16:01:47;35.60;57.10
52203;DHT22;38173;52.850;6.970;2022-08-03T16:04:14;35.20;60.10
52203;DHT22;38173;52.850;6.970;2022-08-03T16:06:40;34.90;59.60
52203;DHT22;38173;52.850;6.970;2022-08-03T16:09:07;34.60;62.00
52203;DHT22;38173;52.850;6.970;2022-08-03T16:11:33;34.90;62.10